Terminal Aerodrome Forecast
Issued by NWS

Home | Current Version | Previous Version | Graphics & Text | Print | Product List | Glossary On
Versions: 1 2 3 4 5 6 7 8 9 10 11 12 13 14 15 16 17 18 19 20 21 22 23 24
000
FTUS42 KMHX 260300 AAA
TAFOAJ
TAF AMD
KOAJ 260338Z 2604/2624 01005KT 4SM -RA BR OVC007
     FM261500 33015G20KT P6SM VCSH OVC020
     FM261900 32010G18KT P6SM BKN015 BKN050
      AMD LTD TO CLD VIS AND WIND=

USA.gov is the U.S. government's official web portal to all federal, state and local government web resources and services.